sensor_id;sensor_type;location;lat;lon;timestamp;pressure;altitude;pressure_sealevel;temperature;humidity
13235;BME280;6683;48.506;9.050;2024-02-04T00:00:40;99277.28;;;11.26;60.69
13235;BME280;6683;48.506;9.050;2024-02-04T00:03:43;99284.38;;;11.25;60.75
13235;BME280;6683;48.506;9.050;2024-02-04T00:06:45;99284.19;;;11.27;60.86
13235;BME280;6683;48.506;9.050;2024-02-04T00:09:48;99289.50;;;11.27;60.35
13235;BME280;6683;48.506;9.050;2024-02-04T00:12:50;99289.31;;;11.28;60.40
13235;BME280;6683;48.506;9.050;2024-02-04T00:15:52;99276.28;;;11.27;60.33
13235;BME280;6683;48.506;9.050;2024-02-04T00:18:55;99278.09;;;11.26;60.77
13235;BME280;6683;48.506;9.050;2024-02-04T00:21:57;99273.63;;;11.27;60.77
13235;BME280;6683;48.506;9.050;2024-02-04T00:25:01;99267.50;;;11.26;60.54
13235;BME280;6683;48.506;9.050;2024-02-04T00:28:05;99267.50;;;11.26;60.33
13235;BME280;6683;48.506;9.050;2024-02-04T00:31:07;99256.13;;;11.26;60.76
13235;BME280;6683;48.506;9.050;2024-02-04T00:34:10;99250.00;;;11.25;60.46
13235;BME280;6683;48.506;9.050;2024-02-04T00:37:12;99243.06;;;11.24;60.83
13235;BME280;6683;48.506;9.050;2024-02-04T00:40:16;99236.97;;;11.24;60.53
13235;BME280;6683;48.506;9.050;2024-02-04T00:43:18;99237.78;;;11.24;60.26
13235;BME280;6683;48.506;9.050;2024-02-04T00:46:20;99223.75;;;11.24;60.77
13235;BME280;6683;48.506;9.050;2024-02-04T00:49:22;99222.94;;;11.23;60.71
13235;BME280;6683;48.506;9.050;2024-02-04T00:52:24;99237.94;;;11.23;60.59
13235;BME280;6683;48.506;9.050;2024-02-04T00:55:27;99220.28;;;11.23;60.24
13235;BME280;6683;48.506;9.050;2024-02-04T00:58:29;99205.56;;;11.21;60.63
13235;BME280;6683;48.506;9.050;2024-02-04T01:01:31;99203.94;;;11.20;60.31
13235;BME280;6683;48.506;9.050;2024-02-04T01:04:33;99206.72;;;11.18;60.46
13235;BME280;6683;48.506;9.050;2024-02-04T01:07:35;99218.13;;;11.19;60.61
13235;BME280;6683;48.506;9.050;2024-02-04T01:10:39;99229.72;;;11.18;60.19
13235;BME280;6683;48.506;9.050;2024-02-04T01:13:41;99233.31;;;11.17;60.78
13235;BME280;6683;48.506;9.050;2024-02-04T01:16:43;99228.22;;;11.15;60.41
13235;BME280;6683;48.506;9.050;2024-02-04T01:19:45;99234.47;;;11.14;60.26
13235;BME280;6683;48.506;9.050;2024-02-04T01:22:47;99239.94;;;11.13;60.57
13235;BME280;6683;48.506;9.050;2024-02-04T01:25:51;99240.91;;;11.12;60.62
13235;BME280;6683;48.506;9.050;2024-02-04T01:28:53;99238.44;;;11.10;60.63
13235;BME280;6683;48.506;9.050;2024-02-04T01:31:55;99221.94;;;11.08;60.36
13235;BME280;6683;48.506;9.050;2024-02-04T01:34:57;99204.56;;;11.06;60.58
13235;BME280;6683;48.506;9.050;2024-02-04T01:37:59;99178.66;;;11.01;60.57
13235;BME280;6683;48.506;9.050;2024-02-04T01:41:03;99187.91;;;10.97;60.47
13235;BME280;6683;48.506;9.050;2024-02-04T01:44:05;99195.03;;;10.97;60.67
13235;BME280;6683;48.506;9.050;2024-02-04T01:47:07;99182.97;;;10.94;60.51
13235;BME280;6683;48.506;9.050;2024-02-04T01:50:10;99175.22;;;10.93;60.74
13235;BME280;6683;48.506;9.050;2024-02-04T01:53:12;99175.34;;;10.91;60.55
13235;BME280;6683;48.506;9.050;2024-02-04T01:56:17;99181.63;;;10.90;60.95
13235;BME280;6683;48.506;9.050;2024-02-04T01:59:20;99188.72;;;10.90;60.73
13235;BME280;6683;48.506;9.050;2024-02-04T02:02:29;99188.72;;;10.90;60.73
13235;BME280;6683;48.506;9.050;2024-02-04T02:05:31;99196.00;;;10.88;60.49
13235;BME280;6683;48.506;9.050;2024-02-04T02:08:34;99201.28;;;10.88;60.57
13235;BME280;6683;48.506;9.050;2024-02-04T02:11:41;99209.50;;;10.85;60.64
13235;BME280;6683;48.506;9.050;2024-02-04T02:14:54;99205.53;;;10.81;60.80
13235;BME280;6683;48.506;9.050;2024-02-04T02:18:02;99207.38;;;10.80;60.79
13235;BME280;6683;48.506;9.050;2024-02-04T02:21:24;99208.34;;;10.79;60.88
13235;BME280;6683;48.506;9.050;2024-02-04T02:24:34;99202.59;;;10.76;60.93
13235;BME280;6683;48.506;9.050;2024-02-04T02:27:46;99219.41;;;10.75;60.72
13235;BME280;6683;48.506;9.050;2024-02-04T02:30:49;99210.81;;;10.73;60.97
13235;BME280;6683;48.506;9.050;2024-02-04T02:33:51;99209.31;;;10.70;60.70
13235;BME280;6683;48.506;9.050;2024-02-04T02:37:03;99202.56;;;10.68;60.83
13235;BME280;6683;48.506;9.050;2024-02-04T02:40:13;99207.03;;;10.67;60.71
13235;BME280;6683;48.506;9.050;2024-02-04T02:43:18;99201.91;;;10.66;60.86
13235;BME280;6683;48.506;9.050;2024-02-04T02:46:20;99195.81;;;10.65;61.29
13235;BME280;6683;48.506;9.050;2024-02-04T02:49:23;99198.59;;;10.64;60.97
13235;BME280;6683;48.506;9.050;2024-02-04T02:52:25;99202.72;;;10.66;60.94
13235;BME280;6683;48.506;9.050;2024-02-04T02:55:29;99208.84;;;10.67;60.92
13235;BME280;6683;48.506;9.050;2024-02-04T02:58:31;99208.84;;;10.67;61.12
13235;BME280;6683;48.506;9.050;2024-02-04T03:01:33;99206.03;;;10.68;60.88
13235;BME280;6683;48.506;9.050;2024-02-04T03:04:35;99197.28;;;10.68;61.33
13235;BME280;6683;48.506;9.050;2024-02-04T03:07:38;99198.94;;;10.69;61.17
13235;BME280;6683;48.506;9.050;2024-02-04T03:10:42;99198.94;;;10.69;61.16
13235;BME280;6683;48.506;9.050;2024-02-04T03:13:44;99200.44;;;10.71;61.11
13235;BME280;6683;48.506;9.050;2024-02-04T03:16:46;99206.53;;;10.72;61.34
13235;BME280;6683;48.506;9.050;2024-02-04T03:19:49;99215.28;;;10.72;61.31
13235;BME280;6683;48.506;9.050;2024-02-04T03:22:52;99215.28;;;10.72;61.04
13235;BME280;6683;48.506;9.050;2024-02-04T03:25:56;99216.09;;;10.73;61.25
13235;BME280;6683;48.506;9.050;2024-02-04T03:28:58;99214.13;;;10.75;61.22
13235;BME280;6683;48.506;9.050;2024-02-04T03:32:02;99224.69;;;10.75;61.36
13235;BME280;6683;48.506;9.050;2024-02-04T03:35:05;99224.53;;;10.76;61.02
13235;BME280;6683;48.506;9.050;2024-02-04T03:38:07;99224.38;;;10.78;61.17
13235;BME280;6683;48.506;9.050;2024-02-04T03:41:11;99225.22;;;10.78;61.33
13235;BME280;6683;48.506;9.050;2024-02-04T03:44:13;99226.84;;;10.79;61.29
13235;BME280;6683;48.506;9.050;2024-02-04T03:47:15;99224.03;;;10.81;61.08
13235;BME280;6683;48.506;9.050;2024-02-04T03:50:17;99208.03;;;10.82;61.03
13235;BME280;6683;48.506;9.050;2024-02-04T03:53:19;99201.94;;;10.82;61.36
13235;BME280;6683;48.506;9.050;2024-02-04T03:56:25;99193.19;;;10.81;61.24
13235;BME280;6683;48.506;9.050;2024-02-04T03:59:27;99185.91;;;10.83;61.22
13235;BME280;6683;48.506;9.050;2024-02-04T04:02:29;99185.91;;;10.83;61.04
13235;BME280;6683;48.506;9.050;2024-02-04T04:05:31;99179.78;;;10.83;61.37
13235;BME280;6683;48.506;9.050;2024-02-04T04:08:33;99167.41;;;10.83;61.26
13235;BME280;6683;48.506;9.050;2024-02-04T04:11:37;99160.34;;;10.84;61.23
13235;BME280;6683;48.506;9.050;2024-02-04T04:14:39;99156.84;;;10.83;61.00
13235;BME280;6683;48.506;9.050;2024-02-04T04:17:42;99151.41;;;10.85;60.89
13235;BME280;6683;48.506;9.050;2024-02-04T04:20:44;99152.25;;;10.85;60.94
13235;BME280;6683;48.506;9.050;2024-02-04T04:23:46;99157.69;;;10.84;60.99
13235;BME280;6683;48.506;9.050;2024-02-04T04:26:49;99165.78;;;10.82;60.90
13235;BME280;6683;48.506;9.050;2024-02-04T04:29:51;99179.66;;;10.84;60.97
13235;BME280;6683;48.506;9.050;2024-02-04T04:32:54;99188.38;;;10.85;61.08
13235;BME280;6683;48.506;9.050;2024-02-04T04:35:56;99183.28;;;10.83;60.82
13235;BME280;6683;48.506;9.050;2024-02-04T04:38:58;99188.72;;;10.82;61.38
13235;BME280;6683;48.506;9.050;2024-02-04T04:42:02;99174.84;;;10.80;60.88
13235;BME280;6683;48.506;9.050;2024-02-04T04:45:06;99172.53;;;10.77;61.28
13235;BME280;6683;48.506;9.050;2024-02-04T04:48:08;99169.22;;;10.75;60.99
13235;BME280;6683;48.506;9.050;2024-02-04T04:51:11;99165.94;;;10.73;61.28
13235;BME280;6683;48.506;9.050;2024-02-04T04:54:14;99160.16;;;10.69;61.16
13235;BME280;6683;48.506;9.050;2024-02-04T04:57:17;99170.06;;;10.67;61.02
13235;BME280;6683;48.506;9.050;2024-02-04T05:00:20;99172.88;;;10.66;61.15
13235;BME280;6683;48.506;9.050;2024-02-04T05:03:22;99187.03;;;10.65;61.41
13235;BME280;6683;48.506;9.050;2024-02-04T05:06:24;99187.03;;;10.65;61.00
13235;BME280;6683;48.506;9.050;2024-02-04T05:09:26;99185.41;;;10.64;60.85
13235;BME280;6683;48.506;9.050;2024-02-04T05:12:30;99194.47;;;10.61;61.16
13235;BME280;6683;48.506;9.050;2024-02-04T05:15:32;99198.91;;;10.61;61.12
13235;BME280;6683;48.506;9.050;2024-02-04T05:18:36;99200.91;;;10.59;61.30
13235;BME280;6683;48.506;9.050;2024-02-04T05:21:39;99199.41;;;10.56;61.18
13235;BME280;6683;48.506;9.050;2024-02-04T05:24:41;99197.91;;;10.54;60.80
13235;BME280;6683;48.506;9.050;2024-02-04T05:27:45;99199.88;;;10.52;61.11
13235;BME280;6683;48.506;9.050;2024-02-04T05:30:47;99203.53;;;10.51;61.44
13235;BME280;6683;48.506;9.050;2024-02-04T05:33:51;99214.25;;;10.49;61.21
13235;BME280;6683;48.506;9.050;2024-02-04T05:36:53;99211.44;;;10.51;61.33
13235;BME280;6683;48.506;9.050;2024-02-04T05:39:56;99221.34;;;10.49;61.25
13235;BME280;6683;48.506;9.050;2024-02-04T05:42:59;99224.81;;;10.49;61.08
13235;BME280;6683;48.506;9.050;2024-02-04T05:46:06;99224.81;;;10.49;61.06
13235;BME280;6683;48.506;9.050;2024-02-04T05:49:08;99224.81;;;10.49;61.51
13235;BME280;6683;48.506;9.050;2024-02-04T05:52:11;99230.91;;;10.50;61.47
13235;BME280;6683;48.506;9.050;2024-02-04T05:55:14;99233.53;;;10.50;61.19
13235;BME280;6683;48.506;9.050;2024-02-04T05:58:17;99243.28;;;10.49;61.24
13235;BME280;6683;48.506;9.050;2024-02-04T06:01:19;99237.19;;;10.49;61.52
13235;BME280;6683;48.506;9.050;2024-02-04T06:04:21;99229.25;;;10.49;61.38
13235;BME280;6683;48.506;9.050;2024-02-04T06:07:23;99231.91;;;10.49;61.39
13235;BME280;6683;48.506;9.050;2024-02-04T06:10:26;99233.53;;;10.50;61.76
13235;BME280;6683;48.506;9.050;2024-02-04T06:13:29;99227.59;;;10.48;61.59
13235;BME280;6683;48.506;9.050;2024-02-04T06:16:31;99221.34;;;10.49;61.63
13235;BME280;6683;48.506;9.050;2024-02-04T06:19:35;99228.25;;;10.50;61.44
13235;BME280;6683;48.506;9.050;2024-02-04T06:22:37;99226.44;;;10.50;61.31
13235;BME280;6683;48.506;9.050;2024-02-04T06:25:39;99216.72;;;10.51;61.58
13235;BME280;6683;48.506;9.050;2024-02-04T06:28:42;99215.06;;;10.50;61.58
13235;BME280;6683;48.506;9.050;2024-02-04T06:31:47;99215.06;;;10.50;61.43
13235;BME280;6683;48.506;9.050;2024-02-04T06:34:49;99215.06;;;10.50;61.71
13235;BME280;6683;48.506;9.050;2024-02-04T06:37:51;99223.97;;;10.49;61.69
13235;BME280;6683;48.506;9.050;2024-02-04T06:40:54;99227.44;;;10.49;61.63
13235;BME280;6683;48.506;9.050;2024-02-04T06:43:57;99225.63;;;10.50;61.48
13235;BME280;6683;48.506;9.050;2024-02-04T06:46:59;99225.63;;;10.50;61.76
13235;BME280;6683;48.506;9.050;2024-02-04T06:50:02;99217.88;;;10.48;61.58
13235;BME280;6683;48.506;9.050;2024-02-04T06:53:06;99218.69;;;10.49;61.54
13235;BME280;6683;48.506;9.050;2024-02-04T06:56:08;99220.66;;;10.47;61.76
13235;BME280;6683;48.506;9.050;2024-02-04T06:59:11;99225.28;;;10.44;61.69
13235;BME280;6683;48.506;9.050;2024-02-04T07:02:14;99229.72;;;10.44;61.38
13235;BME280;6683;48.506;9.050;2024-02-04T07:05:16;99225.44;;;10.43;61.52
13235;BME280;6683;48.506;9.050;2024-02-04T07:08:18;99239.63;;;10.42;61.85
13235;BME280;6683;48.506;9.050;2024-02-04T07:11:20;99243.09;;;10.42;61.45
13235;BME280;6683;48.506;9.050;2024-02-04T07:14:24;99238.78;;;10.41;61.65
13235;BME280;6683;48.506;9.050;2024-02-04T07:17:26;99230.56;;;10.44;61.50
13235;BME280;6683;48.506;9.050;2024-02-04T07:20:28;99226.78;;;10.47;61.42
13235;BME280;6683;48.506;9.050;2024-02-04T07:23:30;99221.16;;;10.50;61.88
13235;BME280;6683;48.506;9.050;2024-02-04T07:26:33;99220.03;;;10.53;61.64
13235;BME280;6683;48.506;9.050;2024-02-04T07:29:36;99216.91;;;10.57;61.71
13235;BME280;6683;48.506;9.050;2024-02-04T07:32:38;99206.84;;;10.61;61.96
13235;BME280;6683;48.506;9.050;2024-02-04T07:35:40;99199.41;;;10.64;61.86
13235;BME280;6683;48.506;9.050;2024-02-04T07:38:42;99199.75;;;10.69;61.91
13235;BME280;6683;48.506;9.050;2024-02-04T07:41:44;99193.34;;;10.72;61.52
13235;BME280;6683;48.506;9.050;2024-02-04T07:44:48;99199.94;;;10.76;61.79
13235;BME280;6683;48.506;9.050;2024-02-04T07:47:50;99213.47;;;10.81;61.92
13235;BME280;6683;48.506;9.050;2024-02-04T07:50:52;99220.06;;;10.85;61.86
13235;BME280;6683;48.506;9.050;2024-02-04T07:53:54;99211.66;;;10.89;61.52
13235;BME280;6683;48.506;9.050;2024-02-04T07:56:57;99212.19;;;10.93;61.79
13235;BME280;6683;48.506;9.050;2024-02-04T08:00:01;99209.03;;;10.97;61.60
13235;BME280;6683;48.506;9.050;2024-02-04T08:03:05;99212.19;;;11.01;61.72
13235;BME280;6683;48.506;9.050;2024-02-04T08:06:09;99211.03;;;11.03;61.62
13235;BME280;6683;48.506;9.050;2024-02-04T08:09:11;99214.00;;;11.08;61.72
13235;BME280;6683;48.506;9.050;2024-02-04T08:12:13;99205.09;;;11.09;61.54
13235;BME280;6683;48.506;9.050;2024-02-04T08:15:17;99199.47;;;11.12;61.24
13235;BME280;6683;48.506;9.050;2024-02-04T08:18:20;99194.00;;;11.14;61.39
13235;BME280;6683;48.506;9.050;2024-02-04T08:21:22;99191.03;;;11.17;61.28
13235;BME280;6683;48.506;9.050;2024-02-04T08:24:24;99197.81;;;11.19;61.48
13235;BME280;6683;48.506;9.050;2024-02-04T08:27:26;99202.09;;;11.20;60.98
13235;BME280;6683;48.506;9.050;2024-02-04T08:30:30;99200.94;;;11.23;61.38
13235;BME280;6683;48.506;9.050;2024-02-04T08:33:32;99198.13;;;11.24;60.98
13235;BME280;6683;48.506;9.050;2024-02-04T08:36:34;99203.28;;;11.26;60.94
13235;BME280;6683;48.506;9.050;2024-02-04T08:39:36;99199.44;;;11.28;61.06
13235;BME280;6683;48.506;9.050;2024-02-04T08:42:38;99188.56;;;11.32;60.96
13235;BME280;6683;48.506;9.050;2024-02-04T08:45:43;99188.38;;;11.33;61.02
13235;BME280;6683;48.506;9.050;2024-02-04T08:48:45;99183.44;;;11.38;61.07
13235;BME280;6683;48.506;9.050;2024-02-04T08:51:47;99181.28;;;11.42;61.23
13235;BME280;6683;48.506;9.050;2024-02-04T08:54:49;99162.44;;;11.45;60.84
13235;BME280;6683;48.506;9.050;2024-02-04T08:57:51;99185.56;;;11.51;61.16
13235;BME280;6683;48.506;9.050;2024-02-04T09:00:55;99177.13;;;11.55;60.81
13235;BME280;6683;48.506;9.050;2024-02-04T09:03:57;99189.84;;;11.60;61.24
13235;BME280;6683;48.506;9.050;2024-02-04T09:06:59;99207.03;;;11.64;60.89
13235;BME280;6683;48.506;9.050;2024-02-04T09:10:01;99213.81;;;11.66;60.97
13235;BME280;6683;48.506;9.050;2024-02-04T09:13:04;99200.91;;;11.71;60.99
13235;BME280;6683;48.506;9.050;2024-02-04T09:16:08;99188.03;;;11.76;60.85
13235;BME280;6683;48.506;9.050;2024-02-04T09:19:10;99187.66;;;11.79;60.91
13235;BME280;6683;48.506;9.050;2024-02-04T09:22:12;99183.03;;;11.81;60.79
13235;BME280;6683;48.506;9.050;2024-02-04T09:25:14;99210.97;;;11.84;60.39
13235;BME280;6683;48.506;9.050;2024-02-04T09:28:16;99202.84;;;11.85;60.40
13235;BME280;6683;48.506;9.050;2024-02-04T09:31:20;99199.88;;;11.88;60.69
13235;BME280;6683;48.506;9.050;2024-02-04T09:34:22;99188.94;;;11.91;60.42
13235;BME280;6683;48.506;9.050;2024-02-04T09:37:24;99185.13;;;11.94;60.48
13235;BME280;6683;48.506;9.050;2024-02-04T09:40:26;99190.91;;;11.97;60.35
13235;BME280;6683;48.506;9.050;2024-02-04T09:43:31;99188.13;;;11.99;60.46
13235;BME280;6683;48.506;9.050;2024-02-04T09:46:35;99187.09;;;12.00;60.45
13235;BME280;6683;48.506;9.050;2024-02-04T09:49:37;99184.13;;;12.03;60.48
13235;BME280;6683;48.506;9.050;2024-02-04T09:52:40;99200.16;;;12.10;60.25
13235;BME280;6683;48.506;9.050;2024-02-04T09:55:43;99206.09;;;12.12;60.41
13235;BME280;6683;48.506;9.050;2024-02-04T09:58:46;99204.56;;;12.17;60.13
13235;BME280;6683;48.506;9.050;2024-02-04T10:01:50;99223.06;;;12.25;60.37
13235;BME280;6683;48.506;9.050;2024-02-04T10:04:52;99223.78;;;12.50;60.56
13235;BME280;6683;48.506;9.050;2024-02-04T10:07:55;99215.22;;;12.70;60.01
13235;BME280;6683;48.506;9.050;2024-02-04T10:10:57;99215.28;;;12.85;59.71
13235;BME280;6683;48.506;9.050;2024-02-04T10:14:00;99209.59;;;12.96;59.80
13235;BME280;6683;48.506;9.050;2024-02-04T10:17:04;99214.16;;;13.02;59.51
13235;BME280;6683;48.506;9.050;2024-02-04T10:20:10;99214.16;;;13.02;59.32
13235;BME280;6683;48.506;9.050;2024-02-04T10:23:13;99203.94;;;12.99;59.25
13235;BME280;6683;48.506;9.050;2024-02-04T10:26:17;99188.56;;;12.95;59.30
13235;BME280;6683;48.506;9.050;2024-02-04T10:29:21;99189.09;;;13.13;59.50
13235;BME280;6683;48.506;9.050;2024-02-04T10:32:25;99177.09;;;13.39;59.00
13235;BME280;6683;48.506;9.050;2024-02-04T10:35:27;99181.16;;;13.64;58.88
13235;BME280;6683;48.506;9.050;2024-02-04T10:38:29;99152.34;;;13.76;58.34
13235;BME280;6683;48.506;9.050;2024-02-04T10:41:32;99160.66;;;13.73;58.12
13235;BME280;6683;48.506;9.050;2024-02-04T10:44:36;99151.63;;;13.68;58.02
13235;BME280;6683;48.506;9.050;2024-02-04T10:47:41;99128.00;;;13.73;58.34
13235;BME280;6683;48.506;9.050;2024-02-04T10:50:47;99105.94;;;14.01;58.31
13235;BME280;6683;48.506;9.050;2024-02-04T10:53:50;99133.97;;;14.39;58.26
13235;BME280;6683;48.506;9.050;2024-02-04T10:56:58;99129.03;;;14.72;57.42
13235;BME280;6683;48.506;9.050;2024-02-04T11:00:04;99132.66;;;14.92;57.01
13235;BME280;6683;48.506;9.050;2024-02-04T11:03:11;99122.38;;;15.10;56.61
13235;BME280;6683;48.506;9.050;2024-02-04T11:06:14;99120.66;;;15.24;56.52
13235;BME280;6683;48.506;9.050;2024-02-04T11:09:18;99122.91;;;15.48;56.25
13235;BME280;6683;48.506;9.050;2024-02-04T11:12:21;99105.66;;;15.72;56.15
13235;BME280;6683;48.506;9.050;2024-02-04T11:15:29;99098.81;;;15.97;55.50
13235;BME280;6683;48.506;9.050;2024-02-04T11:18:58;99098.88;;;16.10;55.21
13235;BME280;6683;48.506;9.050;2024-02-04T11:22:24;99111.84;;;16.33;55.08
13235;BME280;6683;48.506;9.050;2024-02-04T11:25:44;99122.81;;;16.64;54.76
13235;BME280;6683;48.506;9.050;2024-02-04T11:28:47;99119.56;;;16.95;54.11
13235;BME280;6683;48.506;9.050;2024-02-04T11:31:49;99117.72;;;17.28;53.47
13235;BME280;6683;48.506;9.050;2024-02-04T11:34:53;99107.44;;;17.58;53.09
13235;BME280;6683;48.506;9.050;2024-02-04T11:37:56;99106.59;;;17.70;52.42
13235;BME280;6683;48.506;9.050;2024-02-04T11:40:58;99109.47;;;17.69;52.23
13235;BME280;6683;48.506;9.050;2024-02-04T11:44:07;99117.72;;;17.41;52.44
13235;BME280;6683;48.506;9.050;2024-02-04T11:47:10;99109.13;;;17.06;52.74
13235;BME280;6683;48.506;9.050;2024-02-04T11:50:28;99093.53;;;16.77;53.05
13235;BME280;6683;48.506;9.050;2024-02-04T11:53:31;99090.66;;;16.85;53.49
13235;BME280;6683;48.506;9.050;2024-02-04T11:56:33;99094.34;;;17.04;52.96
13235;BME280;6683;48.506;9.050;2024-02-04T11:59:37;99082.22;;;16.95;52.86
13235;BME280;6683;48.506;9.050;2024-02-04T12:02:39;99080.97;;;16.77;52.77
13235;BME280;6683;48.506;9.050;2024-02-04T12:05:43;99074.41;;;16.73;52.79
13235;BME280;6683;48.506;9.050;2024-02-04T12:08:46;99076.69;;;16.83;53.26
13235;BME280;6683;48.506;9.050;2024-02-04T12:11:48;99076.06;;;17.07;53.07
13235;BME280;6683;48.506;9.050;2024-02-04T12:14:51;99061.44;;;17.36;52.98
13235;BME280;6683;48.506;9.050;2024-02-04T12:17:54;99051.59;;;17.36;52.36
13235;BME280;6683;48.506;9.050;2024-02-04T12:20:57;99060.88;;;17.21;52.33
13235;BME280;6683;48.506;9.050;2024-02-04T12:24:00;99059.66;;;17.04;52.44
13235;BME280;6683;48.506;9.050;2024-02-04T12:27:02;99056.38;;;16.89;52.59
13235;BME280;6683;48.506;9.050;2024-02-04T12:30:19;99048.38;;;16.82;52.81
13235;BME280;6683;48.506;9.050;2024-02-04T12:33:22;99047.38;;;16.83;52.54
13235;BME280;6683;48.506;9.050;2024-02-04T12:36:26;99045.31;;;16.78;52.34
13235;BME280;6683;48.506;9.050;2024-02-04T12:39:28;99043.03;;;16.69;52.26
13235;BME280;6683;48.506;9.050;2024-02-04T12:42:33;99024.56;;;16.54;52.45
13235;BME280;6683;48.506;9.050;2024-02-04T12:45:35;99026.19;;;16.42;52.47
13235;BME280;6683;48.506;9.050;2024-02-04T12:48:37;99019.81;;;16.37;52.84
13235;BME280;6683;48.506;9.050;2024-02-04T12:51:41;99015.94;;;16.33;52.77
13235;BME280;6683;48.506;9.050;2024-02-04T12:54:45;99018.00;;;16.37;52.74
13235;BME280;6683;48.506;9.050;2024-02-04T12:57:47;99011.22;;;16.41;52.36
13235;BME280;6683;48.506;9.050;2024-02-04T13:01:00;99015.09;;;16.32;52.44
13235;BME280;6683;48.506;9.050;2024-02-04T13:04:02;99012.00;;;16.22;52.83
13235;BME280;6683;48.506;9.050;2024-02-04T13:07:09;99016.28;;;16.10;52.74
13235;BME280;6683;48.506;9.050;2024-02-04T13:10:13;99008.69;;;16.00;52.96
13235;BME280;6683;48.506;9.050;2024-02-04T13:13:16;98994.72;;;15.92;52.93
13235;BME280;6683;48.506;9.050;2024-02-04T13:16:19;98989.19;;;15.87;53.19
13235;BME280;6683;48.506;9.050;2024-02-04T13:19:22;98978.31;;;15.82;53.20
13235;BME280;6683;48.506;9.050;2024-02-04T13:22:27;98977.06;;;15.78;53.34
13235;BME280;6683;48.506;9.050;2024-02-04T13:25:30;98984.44;;;15.76;53.47
13235;BME280;6683;48.506;9.050;2024-02-04T13:28:32;98979.13;;;15.76;53.47
13235;BME280;6683;48.506;9.050;2024-02-04T13:31:34;98973.78;;;15.76;53.62
13235;BME280;6683;48.506;9.050;2024-02-04T13:34:36;98984.03;;;15.72;53.50
13235;BME280;6683;48.506;9.050;2024-02-04T13:37:41;98986.47;;;15.74;53.97
13235;BME280;6683;48.506;9.050;2024-02-04T13:40:47;98994.47;;;15.74;53.81
13235;BME280;6683;48.506;9.050;2024-02-04T13:43:49;98993.22;;;15.70;53.83
13235;BME280;6683;48.506;9.050;2024-02-04T13:46:51;98991.78;;;15.67;53.83
13235;BME280;6683;48.506;9.050;2024-02-04T13:49:54;98986.66;;;15.66;53.85
13235;BME280;6683;48.506;9.050;2024-02-04T13:52:59;98987.88;;;15.63;53.91
13235;BME280;6683;48.506;9.050;2024-02-04T13:56:01;98985.81;;;15.59;53.91
13235;BME280;6683;48.506;9.050;2024-02-04T13:59:04;98986.41;;;15.54;53.94
13235;BME280;6683;48.506;9.050;2024-02-04T14:02:07;98990.06;;;15.47;54.00
13235;BME280;6683;48.506;9.050;2024-02-04T14:05:10;98989.16;;;15.40;54.03
13235;BME280;6683;48.506;9.050;2024-02-04T14:08:14;98983.00;;;15.33;53.97
13235;BME280;6683;48.506;9.050;2024-02-04T14:11:16;98991.38;;;15.30;54.18
13235;BME280;6683;48.506;9.050;2024-02-04T14:14:19;98994.44;;;15.27;54.01
13235;BME280;6683;48.506;9.050;2024-02-04T14:17:21;98999.13;;;15.25;54.23
13235;BME280;6683;48.506;9.050;2024-02-04T14:20:23;99009.31;;;15.21;54.05
13235;BME280;6683;48.506;9.050;2024-02-04T14:23:27;98997.66;;;15.15;54.17
13235;BME280;6683;48.506;9.050;2024-02-04T14:26:29;99001.72;;;15.11;54.23
13235;BME280;6683;48.506;9.050;2024-02-04T14:29:31;99006.00;;;15.06;54.37
13235;BME280;6683;48.506;9.050;2024-02-04T14:32:33;99003.69;;;15.03;54.29
13235;BME280;6683;48.506;9.050;2024-02-04T14:35:35;99008.59;;;14.99;54.24
13235;BME280;6683;48.506;9.050;2024-02-04T14:38:38;99009.81;;;14.97;54.32
13235;BME280;6683;48.506;9.050;2024-02-04T14:41:41;99026.97;;;14.94;54.44
13235;BME280;6683;48.506;9.050;2024-02-04T14:44:44;99031.66;;;14.92;54.57
13235;BME280;6683;48.506;9.050;2024-02-04T14:47:46;99024.88;;;14.90;54.52
13235;BME280;6683;48.506;9.050;2024-02-04T14:50:48;99037.75;;;14.86;54.54
13235;BME280;6683;48.506;9.050;2024-02-04T14:53:52;99035.66;;;14.82;54.60
13235;BME280;6683;48.506;9.050;2024-02-04T14:56:54;99044.81;;;14.79;54.64
13235;BME280;6683;48.506;9.050;2024-02-04T14:59:56;99055.88;;;14.76;54.68
13235;BME280;6683;48.506;9.050;2024-02-04T15:02:58;99052.75;;;14.73;54.92
13235;BME280;6683;48.506;9.050;2024-02-04T15:06:00;99052.13;;;14.71;54.79
13235;BME280;6683;48.506;9.050;2024-02-04T15:09:03;99049.84;;;14.68;54.65
13235;BME280;6683;48.506;9.050;2024-02-04T15:12:07;99063.16;;;14.68;54.78
13235;BME280;6683;48.506;9.050;2024-02-04T15:15:10;99067.81;;;14.66;54.82
13235;BME280;6683;48.506;9.050;2024-02-04T15:18:13;99062.72;;;14.64;54.90
13235;BME280;6683;48.506;9.050;2024-02-04T15:21:16;99067.41;;;14.62;54.97
13235;BME280;6683;48.506;9.050;2024-02-04T15:24:20;99066.31;;;14.57;55.06
13235;BME280;6683;48.506;9.050;2024-02-04T15:27:23;99053.59;;;14.52;54.96
13235;BME280;6683;48.506;9.050;2024-02-04T15:30:26;99056.84;;;14.48;54.99
13235;BME280;6683;48.506;9.050;2024-02-04T15:33:29;99050.63;;;14.40;55.19
13235;BME280;6683;48.506;9.050;2024-02-04T15:36:31;99060.00;;;14.36;55.13
13235;BME280;6683;48.506;9.050;2024-02-04T15:39:36;99056.06;;;14.32;55.20
13235;BME280;6683;48.506;9.050;2024-02-04T15:42:38;99060.91;;;14.29;55.22
13235;BME280;6683;48.506;9.050;2024-02-04T15:45:41;99060.66;;;14.24;55.32
13235;BME280;6683;48.506;9.050;2024-02-04T15:48:44;99068.19;;;14.20;55.40
13235;BME280;6683;48.506;9.050;2024-02-04T15:51:48;99057.28;;;14.15;55.45
13235;BME280;6683;48.506;9.050;2024-02-04T15:54:53;99053.16;;;14.13;55.53
13235;BME280;6683;48.506;9.050;2024-02-04T15:58:00;99056.56;;;14.07;55.63
13235;BME280;6683;48.506;9.050;2024-02-04T16:01:10;99053.47;;;14.03;55.61
13235;BME280;6683;48.506;9.050;2024-02-04T16:04:15;99044.06;;;14.01;55.67
13235;BME280;6683;48.506;9.050;2024-02-04T16:07:20;99056.25;;;13.95;55.78
13235;BME280;6683;48.506;9.050;2024-02-04T16:10:25;99052.31;;;13.91;55.93
13235;BME280;6683;48.506;9.050;2024-02-04T16:13:29;99042.44;;;13.85;55.82
13235;BME280;6683;48.506;9.050;2024-02-04T16:16:35;99051.13;;;13.79;56.04
13235;BME280;6683;48.506;9.050;2024-02-04T16:19:39;99053.34;;;13.76;55.95
13235;BME280;6683;48.506;9.050;2024-02-04T16:22:43;99049.78;;;13.69;56.11